createdAt,value
2022-08-20T00:02:17.976Z,101322.00
2022-08-20T00:04:47.975Z,101314.00
2022-08-20T00:07:17.278Z,101313.00
2022-08-20T00:09:46.975Z,101329.00
2022-08-20T00:12:18.848Z,101323.00
2022-08-20T00:14:47.552Z,101318.00
2022-08-20T00:17:16.449Z,101288.00
2022-08-20T00:19:44.755Z,101289.00
2022-08-20T00:22:14.712Z,101314.00
2022-08-20T00:24:43.236Z,101302.00
2022-08-20T00:27:11.695Z,101298.00
2022-08-20T00:29:40.037Z,101294.00
2022-08-20T00:32:08.871Z,101302.00
2022-08-20T00:34:37.252Z,101318.00
2022-08-20T00:37:06.095Z,101306.00
2022-08-20T00:39:36.226Z,101324.00
2022-08-20T00:42:05.667Z,101314.00
2022-08-20T00:44:34.769Z,101337.00
2022-08-20T00:47:04.330Z,101295.00
2022-08-20T00:49:34.175Z,101305.00
2022-08-20T00:52:08.233Z,101319.00
2022-08-20T00:54:44.518Z,101306.00
2022-08-20T00:57:19.905Z,101315.00
2022-08-20T00:59:50.420Z,101304.00
2022-08-20T01:02:20.816Z,101325.00
2022-08-20T01:04:51.651Z,101331.00
2022-08-20T01:07:20.829Z,101308.00
2022-08-20T01:09:58.934Z,101305.00
2022-08-20T01:12:30.313Z,101272.00
2022-08-20T01:15:02.733Z,101326.00
2022-08-20T01:17:36.325Z,101344.00
2022-08-20T01:20:12.431Z,101363.00
2022-08-20T01:23:04.951Z,101351.00
2022-08-20T01:25:45.467Z,101320.00
2022-08-20T01:28:16.437Z,101343.00
2022-08-20T01:30:45.180Z,101329.00
2022-08-20T01:33:13.879Z,101362.00
2022-08-20T01:35:44.913Z,101334.00
2022-08-20T01:38:14.165Z,101352.00
2022-08-20T01:41:15.945Z,101336.00
2022-08-20T01:43:46.819Z,101324.00
2022-08-20T01:46:18.126Z,101326.00
2022-08-20T01:48:48.646Z,101352.00
2022-08-20T01:51:22.092Z,101365.00
2022-08-20T01:53:54.618Z,101368.00
2022-08-20T01:56:29.284Z,101369.00
2022-08-20T01:59:00.831Z,101366.00
2022-08-20T02:01:39.039Z,101319.00
2022-08-20T02:04:18.070Z,101349.00
2022-08-20T02:06:56.339Z,101337.00
2022-08-20T02:09:27.135Z,101334.00
2022-08-20T02:11:58.546Z,101343.00
2022-08-20T02:14:28.024Z,101318.00
2022-08-20T02:16:58.470Z,101346.00
2022-08-20T02:19:33.923Z,101328.00
2022-08-20T02:22:12.503Z,101340.00
2022-08-20T02:24:40.932Z,101331.00
2022-08-20T02:27:10.646Z,101367.00
2022-08-20T02:29:39.399Z,101364.00
2022-08-20T02:32:32.493Z,101361.00
2022-08-20T02:34:57.494Z,101330.00
2022-08-20T02:37:25.946Z,101345.00
2022-08-20T02:39:54.243Z,101339.00
2022-08-20T02:42:23.943Z,101340.00
2022-08-20T02:44:54.102Z,101352.00
2022-08-20T02:47:22.355Z,101349.00
2022-08-20T02:49:50.643Z,101339.00
2022-08-20T02:52:19.328Z,101355.00
2022-08-20T02:54:48.436Z,101363.00
2022-08-20T02:57:20.376Z,101362.00
2022-08-20T02:59:52.306Z,101357.00
2022-08-20T03:02:21.629Z,101348.00
2022-08-20T03:04:50.034Z,101370.00
2022-08-20T03:07:18.526Z,101367.00
2022-08-20T03:09:46.852Z,101346.00
2022-08-20T03:12:15.531Z,101364.00
2022-08-20T03:14:44.242Z,101360.00
2022-08-20T03:17:13.991Z,101370.00
2022-08-20T03:19:42.695Z,101357.00
2022-08-20T03:22:10.973Z,101345.00
2022-08-20T03:24:39.225Z,101372.00
2022-08-20T03:27:07.569Z,101348.00
2022-08-20T03:29:36.666Z,101366.00
2022-08-20T03:32:07.802Z,101357.00
2022-08-20T03:34:37.758Z,101358.00
2022-08-20T03:37:06.832Z,101361.00
2022-08-20T03:39:35.223Z,101360.00
2022-08-20T03:42:03.994Z,101368.00
2022-08-20T03:44:32.390Z,101375.00
2022-08-20T03:47:01.155Z,101377.00
2022-08-20T03:49:29.476Z,101365.00
2022-08-20T03:51:59.854Z,101359.00
2022-08-20T03:54:31.621Z,101387.00
2022-08-20T03:57:02.855Z,101382.00
2022-08-20T03:59:33.139Z,101390.00
2022-08-20T04:02:01.900Z,101387.00
2022-08-20T04:04:30.231Z,101368.00
2022-08-20T04:06:59.957Z,101366.00
2022-08-20T04:09:28.909Z,101390.00
2022-08-20T04:12:00.981Z,101398.00
2022-08-20T04:14:29.456Z,101384.00
2022-08-20T04:16:58.959Z,101378.00
2022-08-20T04:19:30.186Z,101357.00
2022-08-20T04:22:03.745Z,101383.00
2022-08-20T04:24:32.776Z,101394.00
2022-08-20T04:27:02.703Z,101387.00
2022-08-20T04:29:31.993Z,101391.00
2022-08-20T04:32:02.772Z,101356.00
2022-08-20T04:34:35.186Z,101391.00
2022-08-20T04:37:05.419Z,101399.00
2022-08-20T04:39:34.286Z,101396.00
2022-08-20T04:42:01.607Z,101397.00
2022-08-20T04:44:30.046Z,101407.00
2022-08-20T04:46:58.621Z,101387.00
2022-08-20T04:49:27.862Z,101382.00
2022-08-20T04:51:56.651Z,101394.00
2022-08-20T04:54:26.326Z,101385.00
2022-08-20T04:56:54.669Z,101406.00
2022-08-20T04:59:23.236Z,101409.00
2022-08-20T05:01:51.791Z,101414.00
2022-08-20T05:04:20.053Z,101420.00
2022-08-20T05:06:50.383Z,101417.00
2022-08-20T05:09:18.791Z,101396.00
2022-08-20T05:11:48.727Z,101414.00
2022-08-20T05:14:17.035Z,101423.00
2022-08-20T05:16:45.385Z,101431.00
2022-08-20T05:19:14.808Z,101425.00
2022-08-20T05:21:43.165Z,101425.00
2022-08-20T05:24:12.106Z,101381.00
2022-08-20T05:26:40.958Z,101421.00
2022-08-20T05:29:10.753Z,101424.00
2022-08-20T05:31:39.377Z,101430.00
2022-08-20T05:34:11.789Z,101429.00
2022-08-20T05:36:41.449Z,101430.00
2022-08-20T05:39:10.518Z,101397.00
2022-08-20T05:41:42.022Z,101419.00
2022-08-20T05:44:13.842Z,101437.00
2022-08-20T05:46:44.917Z,101421.00
2022-08-20T05:49:18.847Z,101448.00
2022-08-20T05:51:47.371Z,101447.00
2022-08-20T05:54:16.769Z,101455.00
2022-08-20T05:56:45.595Z,101459.00
2022-08-20T05:59:15.823Z,101465.00
2022-08-20T06:01:45.907Z,101462.00
2022-08-20T06:04:25.327Z,101458.00
2022-08-20T06:06:56.111Z,101465.00
2022-08-20T06:09:31.396Z,101461.00
2022-08-20T06:12:01.877Z,101467.00
2022-08-20T06:14:32.327Z,101459.00
2022-08-20T06:17:07.042Z,101449.00
2022-08-20T06:19:36.444Z,101467.00
2022-08-20T06:22:17.553Z,101452.00
2022-08-20T06:24:47.810Z,101469.00
2022-08-20T06:27:17.955Z,101464.00
2022-08-20T06:29:48.436Z,101462.00
2022-08-20T06:32:17.130Z,101459.00
2022-08-20T06:34:49.918Z,101459.00
2022-08-20T06:37:23.229Z,101459.00
2022-08-20T06:40:04.133Z,101456.00
2022-08-20T06:42:32.611Z,101457.00
2022-08-20T06:45:04.826Z,101437.00
2022-08-20T06:47:33.933Z,101464.00
2022-08-20T06:50:02.426Z,101448.00
2022-08-20T06:52:53.039Z,101473.00
2022-08-20T06:55:19.702Z,101460.00
2022-08-20T06:57:48.542Z,101461.00
2022-08-20T07:00:20.980Z,101446.00
2022-08-20T07:02:49.306Z,101449.00
2022-08-20T07:05:17.623Z,101470.00
2022-08-20T07:07:47.503Z,101465.00
2022-08-20T07:10:17.495Z,101471.00
2022-08-20T07:12:46.819Z,101474.00
2022-08-20T07:15:17.155Z,101469.00
2022-08-20T07:17:51.634Z,101468.00
2022-08-20T07:20:21.355Z,101474.00
2022-08-20T07:22:51.133Z,101475.00
2022-08-20T07:25:22.234Z,101479.00
2022-08-20T07:27:51.747Z,101487.00
2022-08-20T07:30:56.903Z,101489.00
2022-08-20T07:33:28.380Z,101477.00
2022-08-20T07:35:57.103Z,101489.00
2022-08-20T07:38:30.739Z,101488.00
2022-08-20T07:41:01.379Z,101495.00
2022-08-20T07:43:30.730Z,101496.00
2022-08-20T07:46:03.142Z,101494.00
2022-08-20T07:48:32.788Z,101494.00
2022-08-20T07:51:04.807Z,101497.00
2022-08-20T07:53:35.905Z,101494.00
2022-08-20T07:56:10.211Z,101480.00
2022-08-20T07:58:43.465Z,101487.00
2022-08-20T08:01:13.295Z,101493.00
2022-08-20T08:03:49.953Z,101502.00
2022-08-20T08:06:28.978Z,101496.00
2022-08-20T08:09:07.318Z,101495.00
2022-08-20T08:11:43.700Z,101501.00
2022-08-20T08:14:15.576Z,101507.00
2022-08-20T08:16:46.151Z,101508.00
2022-08-20T08:19:17.576Z,101500.00
2022-08-20T08:22:01.370Z,101510.00
2022-08-20T08:24:30.297Z,101506.00
2022-08-20T08:26:58.645Z,101510.00
2022-08-20T08:29:27.253Z,101508.00
2022-08-20T08:31:57.247Z,101507.00
2022-08-20T08:34:26.077Z,101503.00
2022-08-20T08:36:54.457Z,101505.00
2022-08-20T08:39:24.299Z,101495.00
2022-08-20T08:42:03.041Z,101504.00
2022-08-20T08:44:35.908Z,101503.00
2022-08-20T08:47:13.836Z,101509.00
2022-08-20T08:49:42.091Z,101507.00
2022-08-20T08:52:18.844Z,101504.00
2022-08-20T08:54:51.482Z,101494.00
2022-08-20T08:57:20.376Z,101499.00
2022-08-20T09:00:04.452Z,101510.00
2022-08-20T09:02:41.004Z,101513.00
2022-08-20T09:05:17.947Z,101505.00
2022-08-20T09:07:51.151Z,101525.00
2022-08-20T09:10:23.209Z,101526.00
2022-08-20T09:12:52.245Z,101524.00
2022-08-20T09:15:21.229Z,101528.00
2022-08-20T09:17:51.079Z,101518.00
2022-08-20T09:20:19.547Z,101530.00
2022-08-20T09:22:51.375Z,101512.00
2022-08-20T09:25:21.178Z,101536.00
2022-08-20T09:27:49.703Z,101534.00
2022-08-20T09:30:19.638Z,101541.00
2022-08-20T09:32:49.992Z,101529.00
2022-08-20T09:35:18.236Z,101547.00
2022-08-20T09:37:46.976Z,101547.00
2022-08-20T09:40:21.213Z,101536.00
2022-08-20T09:42:50.311Z,101539.00
2022-08-20T09:45:19.625Z,101546.00
2022-08-20T09:47:56.198Z,101543.00
2022-08-20T09:50:28.135Z,101541.00
2022-08-20T09:52:59.387Z,101546.00
2022-08-20T09:55:35.058Z,101544.00
2022-08-20T09:58:10.114Z,101548.00
2022-08-20T10:00:38.449Z,101543.00
2022-08-20T10:03:06.811Z,101544.00
2022-08-20T10:05:36.374Z,101551.00
2022-08-20T10:08:07.764Z,101548.00
2022-08-20T10:10:36.607Z,101547.00
2022-08-20T10:13:05.179Z,101536.00
2022-08-20T10:15:34.063Z,101549.00
2022-08-20T10:18:07.577Z,101548.00
2022-08-20T10:20:37.438Z,101548.00
2022-08-20T10:23:06.265Z,101542.00
2022-08-20T10:25:35.017Z,101539.00
2022-08-20T10:28:03.652Z,101540.00
2022-08-20T10:30:32.089Z,101527.00
2022-08-20T10:33:00.638Z,101537.00
2022-08-20T10:35:29.054Z,101541.00
2022-08-20T10:37:58.978Z,101551.00
2022-08-20T10:40:27.387Z,101547.00
2022-08-20T10:42:55.609Z,101549.00
2022-08-20T10:45:25.274Z,101553.00
2022-08-20T10:47:53.493Z,101554.00
2022-08-20T10:50:21.718Z,101542.00
2022-08-20T10:52:49.950Z,101534.00
2022-08-20T10:55:21.339Z,101554.00
2022-08-20T10:57:50.083Z,101552.00
2022-08-20T11:00:19.883Z,101540.00
2022-08-20T11:02:48.242Z,101546.00
2022-08-20T11:05:16.467Z,101557.00
2022-08-20T11:07:50.678Z,101550.00
2022-08-20T11:10:27.350Z,101557.00
2022-08-20T11:12:56.479Z,101558.00
2022-08-20T11:15:25.049Z,101551.00
2022-08-20T11:17:53.743Z,101554.00
2022-08-20T11:20:25.058Z,101561.00
2022-08-20T11:22:53.734Z,101564.00
2022-08-20T11:25:22.427Z,101541.00
2022-08-20T11:27:53.964Z,101554.00
2022-08-20T11:30:25.687Z,101551.00
2022-08-20T11:32:54.324Z,101550.00
2022-08-20T11:35:48.289Z,101544.00
2022-08-20T11:38:12.222Z,101550.00
2022-08-20T11:40:40.550Z,101549.00
2022-08-20T11:43:14.575Z,101549.00
2022-08-20T11:45:43.383Z,101549.00
2022-08-20T11:48:11.610Z,101552.00
2022-08-20T11:50:40.427Z,101556.00
2022-08-20T11:53:08.679Z,101553.00
2022-08-20T11:55:37.453Z,101550.00
2022-08-20T11:58:09.185Z,101559.00
2022-08-20T12:00:37.679Z,101559.00
2022-08-20T12:03:09.531Z,101550.00
2022-08-20T12:05:38.160Z,101554.00
2022-08-20T12:08:06.821Z,101539.00
2022-08-20T12:10:35.638Z,101548.00
2022-08-20T12:13:04.791Z,101546.00
2022-08-20T12:15:35.373Z,101542.00
2022-08-20T12:18:08.260Z,101543.00
2022-08-20T12:20:37.566Z,101536.00
2022-08-20T12:23:06.108Z,101536.00
2022-08-20T12:25:34.867Z,101543.00
2022-08-20T12:28:04.996Z,101544.00
2022-08-20T12:30:35.315Z,101551.00
2022-08-20T12:33:03.567Z,101554.00
2022-08-20T12:35:32.087Z,101554.00
2022-08-20T12:38:04.618Z,101554.00
2022-08-20T12:40:33.307Z,101556.00
2022-08-20T12:43:02.508Z,101554.00
2022-08-20T12:45:31.462Z,101562.00
2022-08-20T12:48:07.112Z,101563.00
2022-08-20T12:50:37.529Z,101563.00
2022-08-20T12:53:06.175Z,101565.00
2022-08-20T12:55:36.039Z,101556.00
2022-08-20T12:58:10.151Z,101559.00
2022-08-20T13:00:43.153Z,101554.00
2022-08-20T13:03:13.990Z,101540.00
2022-08-20T13:05:42.970Z,101563.00
2022-08-20T13:08:13.115Z,101554.00
2022-08-20T13:10:45.803Z,101554.00
2022-08-20T13:13:20.081Z,101548.00
2022-08-20T13:15:50.113Z,101537.00
2022-08-20T13:18:20.528Z,101540.00
2022-08-20T13:20:49.095Z,101540.00
2022-08-20T13:23:17.583Z,101533.00
2022-08-20T13:25:45.783Z,101537.00
2022-08-20T13:28:13.992Z,101532.00
2022-08-20T13:30:42.171Z,101534.00
2022-08-20T13:33:10.641Z,101538.00
2022-08-20T13:35:40.218Z,101540.00
2022-08-20T13:38:08.477Z,101538.00
2022-08-20T13:40:36.750Z,101534.00
2022-08-20T13:43:07.483Z,101535.00
2022-08-20T13:45:41.050Z,101524.00
2022-08-20T13:48:14.506Z,101527.00
2022-08-20T13:50:47.170Z,101520.00
2022-08-20T13:53:16.705Z,101510.00
2022-08-20T13:55:45.740Z,101523.00
2022-08-20T13:58:13.954Z,101519.00
2022-08-20T14:00:42.511Z,101513.00
2022-08-20T14:03:10.769Z,101510.00
2022-08-20T14:05:40.262Z,101511.00
2022-08-20T14:08:13.314Z,101514.00
2022-08-20T14:10:42.801Z,101504.00
2022-08-20T14:13:15.613Z,101517.00
2022-08-20T14:15:44.923Z,101516.00
2022-08-20T14:18:14.554Z,101520.00
2022-08-20T14:20:45.413Z,101524.00
2022-08-20T14:23:16.902Z,101529.00
2022-08-20T14:25:48.098Z,101523.00
2022-08-20T14:28:20.462Z,101531.00
2022-08-20T14:30:53.225Z,101526.00
2022-08-20T14:33:23.422Z,101528.00
2022-08-20T14:35:51.987Z,101518.00
2022-08-20T14:38:21.642Z,101532.00
2022-08-20T14:40:50.335Z,101528.00
2022-08-20T14:43:18.973Z,101525.00
2022-08-20T14:45:47.168Z,101527.00
2022-08-20T14:48:15.948Z,101511.00
2022-08-20T14:50:44.433Z,101530.00
2022-08-20T14:53:12.615Z,101528.00
2022-08-20T14:55:42.532Z,101527.00
2022-08-20T14:58:12.910Z,101528.00
2022-08-20T15:00:42.059Z,101523.00
2022-08-20T15:03:10.708Z,101527.00
2022-08-20T15:05:39.301Z,101522.00
2022-08-20T15:08:10.456Z,101528.00
2022-08-20T15:10:39.806Z,101512.00
2022-08-20T15:13:09.901Z,101517.00
2022-08-20T15:15:39.380Z,101517.00
2022-08-20T15:18:07.975Z,101515.00
2022-08-20T15:20:37.738Z,101512.00
2022-08-20T15:23:06.686Z,101517.00
2022-08-20T15:25:37.930Z,101508.00
2022-08-20T15:28:12.530Z,101519.00
2022-08-20T15:30:42.845Z,101519.00
2022-08-20T15:33:12.031Z,101521.00
2022-08-20T15:35:40.596Z,101527.00
2022-08-20T15:38:09.108Z,101513.00
2022-08-20T15:40:37.694Z,101519.00
2022-08-20T15:43:07.989Z,101519.00
2022-08-20T15:45:37.505Z,101512.00
2022-08-20T15:48:14.116Z,101518.00
2022-08-20T15:51:12.883Z,101515.00
2022-08-20T15:53:53.466Z,101508.00
2022-08-20T15:56:38.032Z,101514.00
2022-08-20T15:59:23.061Z,101518.00
2022-08-20T16:02:06.087Z,101509.00
2022-08-20T16:05:08.159Z,101510.00
2022-08-20T16:07:45.917Z,101510.00
2022-08-20T16:10:22.164Z,101509.00
2022-08-20T16:12:56.104Z,101488.00
2022-08-20T16:15:32.270Z,101500.00
2022-08-20T16:18:07.378Z,101501.00
2022-08-20T16:20:41.839Z,101509.00
2022-08-20T16:23:12.323Z,101511.00
2022-08-20T16:25:55.502Z,101512.00
2022-08-20T16:28:32.083Z,101520.00
2022-08-20T16:31:07.656Z,101520.00
2022-08-20T16:33:42.734Z,101522.00
2022-08-20T16:36:16.586Z,101513.00
2022-08-20T16:38:51.878Z,101514.00
2022-08-20T16:41:27.165Z,101514.00
2022-08-20T16:44:03.732Z,101524.00
2022-08-20T16:46:39.051Z,101513.00
2022-08-20T16:49:14.216Z,101517.00
2022-08-20T16:51:51.799Z,101513.00
2022-08-20T16:54:29.525Z,101519.00
2022-08-20T16:57:03.270Z,101519.00
2022-08-20T16:59:32.122Z,101515.00
2022-08-20T17:02:10.708Z,101515.00
2022-08-20T17:04:58.733Z,101517.00
2022-08-20T17:07:33.420Z,101521.00
2022-08-20T17:10:14.526Z,101519.00
2022-08-20T17:12:42.782Z,101516.00
2022-08-20T17:15:22.520Z,101516.00
2022-08-20T17:17:55.513Z,101524.00
2022-08-20T17:20:29.308Z,101512.00
2022-08-20T17:23:14.726Z,101508.00
2022-08-20T17:25:43.171Z,101520.00
2022-08-20T17:28:18.071Z,101518.00
2022-08-20T17:30:47.790Z,101521.00
2022-08-20T17:33:32.502Z,101522.00
2022-08-20T17:36:07.910Z,101521.00
2022-08-20T17:38:42.276Z,101518.00
2022-08-20T17:41:21.962Z,101521.00
2022-08-20T17:43:58.952Z,101525.00
2022-08-20T17:46:30.596Z,101527.00
2022-08-20T17:49:04.258Z,101527.00
2022-08-20T17:51:39.248Z,101534.00
2022-08-20T17:54:14.093Z,101515.00
2022-08-20T17:56:45.519Z,101523.00
2022-08-20T17:59:24.127Z,101534.00
2022-08-20T18:02:12.103Z,101529.00
2022-08-20T18:04:41.987Z,101527.00
2022-08-20T18:07:18.254Z,101526.00
2022-08-20T18:09:53.941Z,101540.00
2022-08-20T18:12:33.592Z,101532.00
2022-08-20T18:15:12.713Z,101536.00
2022-08-20T18:18:18.660Z,101538.00
2022-08-20T18:21:28.558Z,101541.00
2022-08-20T18:24:03.887Z,101539.00
2022-08-20T18:26:39.639Z,101533.00
2022-08-20T18:29:13.830Z,101545.00
2022-08-20T18:31:48.675Z,101553.00
2022-08-20T18:34:20.776Z,101554.00
2022-08-20T18:37:03.100Z,101533.00
2022-08-20T18:39:35.041Z,101552.00
2022-08-20T18:42:09.073Z,101557.00
2022-08-20T18:44:48.179Z,101560.00
2022-08-20T18:47:25.622Z,101557.00
2022-08-20T18:50:06.504Z,101568.00
2022-08-20T18:52:49.329Z,101567.00
2022-08-20T18:55:41.568Z,101569.00
2022-08-20T18:58:13.263Z,101579.00
2022-08-20T19:00:48.775Z,101568.00
2022-08-20T19:03:22.971Z,101583.00
2022-08-20T19:06:20.640Z,101585.00
2022-08-20T19:09:02.269Z,101565.00
2022-08-20T19:12:00.353Z,101584.00
2022-08-20T19:14:47.210Z,101594.00
2022-08-20T19:17:21.676Z,101590.00
2022-08-20T19:20:01.473Z,101587.00
2022-08-20T19:22:30.383Z,101587.00
2022-08-20T19:25:03.248Z,101588.00
2022-08-20T19:27:32.357Z,101571.00
2022-08-20T19:30:01.425Z,101587.00
2022-08-20T19:32:35.863Z,101595.00
2022-08-20T19:35:08.745Z,101592.00
2022-08-20T19:37:51.638Z,101596.00
2022-08-20T19:40:31.214Z,101572.00
2022-08-20T19:43:11.227Z,101595.00
2022-08-20T19:45:47.030Z,101581.00
2022-08-20T19:48:42.301Z,101592.00
2022-08-20T19:51:22.483Z,101604.00
2022-08-20T19:53:51.571Z,101592.00
2022-08-20T19:56:27.368Z,101597.00
2022-08-20T19:59:05.975Z,101601.00
2022-08-20T20:01:38.658Z,101603.00
2022-08-20T20:04:19.133Z,101590.00
2022-08-20T20:06:50.427Z,101591.00
2022-08-20T20:09:24.853Z,101582.00
2022-08-20T20:12:02.932Z,101562.00
2022-08-20T20:14:34.651Z,101545.00
2022-08-20T20:17:14.428Z,101561.00
2022-08-20T20:19:48.651Z,101584.00
2022-08-20T20:22:25.901Z,101584.00
2022-08-20T20:25:21.830Z,101569.00
2022-08-20T20:27:57.065Z,101562.00
2022-08-20T20:30:30.819Z,101576.00
2022-08-20T20:33:05.190Z,101573.00
2022-08-20T20:35:38.151Z,101581.00
2022-08-20T20:38:09.706Z,101583.00
2022-08-20T20:40:48.037Z,101577.00
2022-08-20T20:43:28.738Z,101556.00
2022-08-20T20:46:08.161Z,101579.00
2022-08-20T20:48:46.063Z,101585.00
2022-08-20T20:51:17.225Z,101580.00
2022-08-20T20:53:54.747Z,101573.00
2022-08-20T20:56:37.644Z,101566.00
2022-08-20T20:59:10.336Z,101570.00
2022-08-20T21:01:48.786Z,101569.00
2022-08-20T21:04:18.957Z,101580.00
2022-08-20T21:06:47.295Z,101566.00
2022-08-20T21:09:15.809Z,101550.00
2022-08-20T21:11:44.186Z,101566.00
2022-08-20T21:14:13.903Z,101565.00
2022-08-20T21:16:42.667Z,101558.00
2022-08-20T21:19:11.426Z,101566.00
2022-08-20T21:21:40.517Z,101565.00
2022-08-20T21:24:09.704Z,101555.00
2022-08-20T21:26:39.427Z,101552.00
2022-08-20T21:29:10.453Z,101575.00
2022-08-20T21:31:44.033Z,101568.00
2022-08-20T21:34:13.047Z,101538.00
2022-08-20T21:36:41.634Z,101558.00
2022-08-20T21:39:10.474Z,101566.00
2022-08-20T21:41:42.676Z,101567.00
2022-08-20T21:44:17.194Z,101564.00
2022-08-20T21:46:52.111Z,101546.00
2022-08-20T21:49:20.800Z,101554.00
2022-08-20T21:51:50.336Z,101555.00
2022-08-20T21:54:18.967Z,101561.00
2022-08-20T21:56:52.539Z,101556.00
2022-08-20T21:59:23.471Z,101559.00
2022-08-20T22:01:53.839Z,101555.00
2022-08-20T22:04:22.882Z,101557.00
2022-08-20T22:06:52.109Z,101550.00
2022-08-20T22:09:20.749Z,101549.00
2022-08-20T22:11:53.971Z,101535.00
2022-08-20T22:14:24.579Z,101555.00
2022-08-20T22:16:55.611Z,101533.00
2022-08-20T22:19:23.878Z,101492.00
2022-08-20T22:21:54.557Z,101541.00
2022-08-20T22:24:23.968Z,101542.00
2022-08-20T22:26:52.254Z,101543.00
2022-08-20T22:29:20.514Z,101544.00
2022-08-20T22:31:48.898Z,101511.00
2022-08-20T22:34:21.277Z,101521.00
2022-08-20T22:36:50.375Z,101540.00
2022-08-20T22:39:18.691Z,101542.00
2022-08-20T22:41:47.030Z,101535.00
2022-08-20T22:44:15.301Z,101535.00
2022-08-20T22:46:48.221Z,101541.00
2022-08-20T22:49:25.610Z,101536.00
2022-08-20T22:51:53.915Z,101538.00
2022-08-20T22:54:26.091Z,101535.00
2022-08-20T22:56:55.603Z,101543.00
2022-08-20T22:59:24.558Z,101494.00
2022-08-20T23:01:53.589Z,101519.00
2022-08-20T23:04:28.547Z,101527.00
2022-08-20T23:06:58.229Z,101533.00
2022-08-20T23:09:27.778Z,101528.00
2022-08-20T23:11:58.601Z,101531.00
2022-08-20T23:14:27.515Z,101524.00
2022-08-20T23:17:01.764Z,101524.00
2022-08-20T23:19:31.851Z,101518.00
2022-08-20T23:22:00.236Z,101499.00
2022-08-20T23:24:28.598Z,101517.00
2022-08-20T23:26:57.185Z,101520.00
2022-08-20T23:29:27.419Z,101509.00
2022-08-20T23:31:57.411Z,101516.00
2022-08-20T23:34:27.241Z,101512.00
2022-08-20T23:36:58.745Z,101523.00
2022-08-20T23:39:28.646Z,101525.00
2022-08-20T23:41:57.273Z,101514.00
2022-08-20T23:44:27.183Z,101489.00
2022-08-20T23:46:57.341Z,101516.00
2022-08-20T23:49:27.201Z,101496.00
2022-08-20T23:51:57.782Z,101474.00
2022-08-20T23:54:26.291Z,101464.00
2022-08-20T23:56:56.804Z,101496.00
2022-08-20T23:59:25.647Z,101458.00
